Time;durP1;ratioP1;P1;durP2;ratioP2;P2;SDS_P1;SDS_P2;PMS_P1;PMS_P2;Temp;Humidity;BMP_temperature;BMP_pressure;BME280_temperature;BME280_humidity;BME280_pressure;Samples;Min_cycle;Max_cycle;Signal;HPM_P1;HPM_P2
2022/06/22 00:01:36;;;;;;;8.33;4.03;;;;;;;20.09;100.00;95854.91;5032374;27;102411;-64
2022/06/22 00:04:05;;;;;;;7.70;3.90;;;;;;;20.15;100.00;95859.00;5032273;28;103181;-63
2022/06/22 00:06:39;;;;;;;5.73;3.90;;;;;;;20.20;100.00;95848.84;5036175;28;101707;-63
2022/06/22 00:09:07;;;;;;;4.93;3.80;;;;;;;20.16;100.00;95837.09;5031817;28;102634;-63
2022/06/22 00:11:37;;;;;;;7.40;4.10;;;;;;;20.15;100.00;95840.09;5032402;28;101796;-63
2022/06/22 00:14:05;;;;;;;7.20;4.43;;;;;;;19.82;100.00;95855.25;5032418;28;102309;-63
2022/06/22 00:16:37;;;;;;;9.13;4.43;;;;;;;19.57;100.00;95872.28;5030502;28;105791;-63
2022/06/22 00:19:17;;;;;;;7.63;4.70;;;;;;;19.44;100.00;95924.47;5032752;28;101834;-63
2022/06/22 00:21:46;;;;;;;7.00;4.60;;;;;;;19.46;100.00;95960.81;5032614;28;102982;-64
2022/06/22 00:24:41;;;;;;;6.73;3.40;;;;;;;19.81;100.00;95953.50;5030342;28;104182;-64
2022/06/22 00:27:16;;;;;;;6.60;3.40;;;;;;;20.05;100.00;95951.13;5036197;27;101901;-64
2022/06/22 00:29:47;;;;;;;8.07;3.37;;;;;;;20.23;100.00;95958.91;5030518;28;105894;-64
2022/06/22 00:32:18;;;;;;;6.13;3.20;;;;;;;20.22;100.00;95959.22;5032194;28;101689;-64
2022/06/22 00:34:45;;;;;;;4.43;2.87;;;;;;;20.13;100.00;95966.53;5032190;27;102907;-63
2022/06/22 00:37:18;;;;;;;4.47;2.57;;;;;;;20.10;100.00;95967.97;5030409;28;106011;-64
2022/06/22 00:39:48;;;;;;;3.97;2.40;;;;;;;20.12;100.00;95973.06;5032554;28;101721;-64
2022/06/22 00:42:32;;;;;;;3.43;2.87;;;;;;;20.08;100.00;95991.78;5032077;27;102541;-64
2022/06/22 00:45:24;;;;;;;4.00;2.60;;;;;;;20.11;100.00;95966.84;5030225;28;105905;-64
2022/06/22 00:47:57;;;;;;;5.77;2.90;;;;;;;20.06;100.00;95963.50;5031451;27;102016;-64
2022/06/22 00:50:28;;;;;;;3.47;2.40;;;;;;;20.01;100.00;95969.06;5033452;28;103655;-64
2022/06/22 00:53:03;;;;;;;6.53;3.10;;;;;;;19.93;100.00;95975.25;5031682;27;101864;-64
2022/06/22 00:55:33;;;;;;;5.33;2.63;;;;;;;19.91;100.00;95972.91;5032084;28;101690;-64
2022/06/22 00:58:05;;;;;;;5.80;3.07;;;;;;;19.85;100.00;95978.75;5031085;28;102620;-64
2022/06/22 01:00:37;;;;;;;4.00;2.93;;;;;;;19.82;100.00;95977.50;5032023;28;102003;-64
2022/06/22 01:03:14;;;;;;;6.37;3.37;;;;;;;19.64;100.00;95983.19;5031303;27;102285;-64
2022/06/22 01:05:50;;;;;;;5.10;3.13;;;;;;;19.66;100.00;95972.88;5030943;28;102602;-64
2022/06/22 01:08:25;;;;;;;5.60;3.10;;;;;;;19.72;100.00;95972.41;5031836;27;101737;-64
2022/06/22 01:10:58;;;;;;;3.63;3.10;;;;;;;19.71;100.00;95961.94;5031582;28;101697;-64
2022/06/22 01:13:29;;;;;;;6.23;3.03;;;;;;;19.76;100.00;95969.88;5034490;28;102719;-64
2022/06/22 01:15:59;;;;;;;3.30;3.00;;;;;;;19.80;100.00;95949.25;5029809;28;103648;-64
2022/06/22 01:18:31;;;;;;;4.47;2.80;;;;;;;19.79;100.00;95953.81;5029616;28;104310;-64
2022/06/22 01:21:05;;;;;;;4.87;3.43;;;;;;;19.78;100.00;95954.94;5031475;27;101693;-64
2022/06/22 01:23:49;;;;;;;5.50;3.70;;;;;;;19.71;100.00;95945.75;5030300;28;103709;-64
2022/06/22 01:26:36;;;;;;;5.37;3.47;;;;;;;19.47;100.00;95948.13;5031190;28;101725;-63
2022/06/22 01:29:14;;;;;;;4.23;2.93;;;;;;;19.38;100.00;95952.72;5030231;28;102252;-64
2022/06/22 01:31:45;;;;;;;5.80;3.50;;;;;;;19.30;100.00;95967.00;5031643;28;102731;-64
2022/06/22 01:34:16;;;;;;;4.30;3.20;;;;;;;19.30;100.00;95956.97;5029532;28;103800;-63
2022/06/22 01:36:44;;;;;;;6.57;3.40;;;;;;;19.32;100.00;95953.97;5034711;28;101797;-63
2022/06/22 01:39:12;;;;;;;4.60;3.17;;;;;;;19.32;100.00;95956.69;5029247;28;105574;-64
2022/06/22 01:41:46;;;;;;;4.63;3.50;;;;;;;19.31;100.00;95947.00;5031089;27;101849;-64
2022/06/22 01:44:24;;;;;;;5.47;3.27;;;;;;;19.29;100.00;95936.53;5031162;28;102383;-64
2022/06/22 01:47:11;;;;;;;5.27;3.20;;;;;;;19.28;100.00;95931.44;5030333;28;102664;-64
2022/06/22 01:49:45;;;;;;;6.57;3.47;;;;;;;19.31;100.00;95930.81;5031125;28;101759;-64
2022/06/22 01:52:16;;;;;;;4.83;2.80;;;;;;;19.30;100.00;95923.84;5029390;28;105552;-64
2022/06/22 01:54:50;;;;;;;8.33;3.30;;;;;;;19.35;100.00;95905.59;5029713;28;102903;-64
2022/06/22 01:57:23;;;;;;;5.90;3.60;;;;;;;19.43;100.00;95901.31;5030687;27;102104;-64
2022/06/22 01:59:59;;;;;;;4.93;3.30;;;;;;;19.46;100.00;95890.69;5033000;27;102811;-64
2022/06/22 02:02:29;;;;;;;6.97;3.43;;;;;;;19.43;100.00;95891.34;5029307;28;102046;-64
2022/06/22 02:05:03;;;;;;;5.10;3.40;;;;;;;19.36;100.00;95885.66;5029413;28;103454;-63
2022/06/22 02:07:48;;;;;;;5.33;3.23;;;;;;;19.38;100.00;95882.59;5030394;28;102594;-64
2022/06/22 02:10:27;;;;;;;4.37;3.00;;;;;;;19.34;100.00;95885.16;5029375;28;101854;-64
2022/06/22 02:13:07;;;;;;;5.73;3.10;;;;;;;19.30;100.00;95880.72;5030566;28;102602;-64
2022/06/22 02:15:50;;;;;;;5.80;3.40;;;;;;;19.33;100.00;95871.97;5030089;27;102665;-64
2022/06/22 02:18:23;;;;;;;5.23;2.70;;;;;;;19.31;100.00;95866.13;5030703;27;101992;-64
2022/06/22 02:20:51;;;;;;;6.07;3.53;;;;;;;19.30;100.00;95865.31;5030597;28;102432;-64
2022/06/22 02:23:25;;;;;;;4.83;2.97;;;;;;;19.34;100.00;95855.50;5031606;28;101975;-64
2022/06/22 02:26:09;;;;;;;5.03;3.03;;;;;;;19.35;100.00;95846.28;5030681;28;102399;-64
2022/06/22 02:28:36;;;;;;;5.97;3.60;;;;;;;19.31;100.00;95842.66;5030017;27;101784;-64
2022/06/22 02:31:05;;;;;;;5.97;3.50;;;;;;;19.32;100.00;95838.03;5030258;28;101829;-64
2022/06/22 02:33:35;;;;;;;6.10;4.03;;;;;;;19.29;100.00;95836.00;5030355;28;101767;-64
2022/06/22 02:36:03;;;;;;;6.70;4.20;;;;;;;19.28;100.00;95835.19;5028344;28;106421;-64
2022/06/22 02:38:30;;;;;;;7.83;4.30;;;;;;;19.31;100.00;95829.19;5030021;28;102312;-64
2022/06/22 02:46:35;;;;;;;5.50;4.40;;;;;;;19.38;100.00;95824.09;5030258;27;102820;-64
2022/06/22 02:49:07;;;;;;;5.73;4.53;;;;;;;19.40;100.00;95808.38;5028347;28;106464;-64
2022/06/22 02:51:38;;;;;;;9.27;4.83;;;;;;;19.33;100.00;95808.06;5030217;28;101693;-64
2022/06/22 02:54:08;;;;;;;7.90;4.63;;;;;;;19.26;100.00;95817.75;5030081;28;102513;-64
2022/06/22 02:56:41;;;;;;;5.37;4.50;;;;;;;19.31;100.00;95813.00;5029252;28;104004;-64
2022/06/22 02:59:11;;;;;;;9.00;5.30;;;;;;;19.38;100.00;95817.88;5028580;28;101816;-64
2022/06/22 03:01:40;;;;;;;10.30;5.87;;;;;;;19.35;100.00;95823.94;5029929;28;102436;-64
2022/06/22 03:04:12;;;;;;;10.23;6.67;;;;;;;19.41;100.00;95807.25;5029472;28;102589;-64
2022/06/22 03:06:45;;;;;;;8.47;4.87;;;;;;;19.46;100.00;95801.69;5033006;28;101775;-64
2022/06/22 03:09:13;;;;;;;5.83;4.37;;;;;;;19.49;100.00;95803.75;5028164;28;105361;-64
2022/06/22 03:11:44;;;;;;;8.90;4.23;;;;;;;19.55;100.00;95796.28;5033424;27;101713;-64
2022/06/22 03:14:20;;;;;;;7.50;4.93;;;;;;;19.53;100.00;95793.13;5031861;28;105112;-64
2022/06/22 03:16:52;;;;;;;7.23;3.93;;;;;;;19.52;100.00;95792.31;5032898;28;102648;-64
2022/06/22 03:19:27;;;;;;;7.60;4.30;;;;;;;19.55;100.00;95789.00;5033511;28;101777;-64
2022/06/22 03:21:56;;;;;;;7.83;4.33;;;;;;;19.55;100.00;95786.31;5033338;28;102395;-64
2022/06/22 03:24:35;;;;;;;5.63;3.83;;;;;;;19.54;100.00;95779.31;5030971;28;105638;-64
2022/06/22 03:27:05;;;;;;;5.20;3.97;;;;;;;19.51;100.00;95790.75;5033336;28;102113;-64
2022/06/22 03:29:38;;;;;;;5.60;3.90;;;;;;;19.59;100.00;95789.16;5036259;28;102348;-64
2022/06/22 03:32:14;;;;;;;6.67;4.00;;;;;;;19.63;100.00;95795.50;5033019;28;102043;-64
2022/06/22 03:34:51;;;;;;;6.83;3.77;;;;;;;19.62;100.00;95789.28;5033367;28;101852;-64
2022/06/22 03:37:23;;;;;;;6.03;3.60;;;;;;;19.59;100.00;95795.34;5032520;28;102684;-64
2022/06/22 03:39:56;;;;;;;6.93;4.17;;;;;;;19.59;100.00;95798.03;5033562;28;101770;-64
2022/06/22 03:42:27;;;;;;;5.93;3.83;;;;;;;19.58;100.00;95798.34;5031285;28;105107;-64
2022/06/22 03:45:12;;;;;;;8.10;3.90;;;;;;;19.62;100.00;95789.28;5032756;28;102581;-64
2022/06/22 03:47:46;;;;;;;8.07;3.63;;;;;;;19.69;100.00;95791.50;5031668;28;101777;-64
2022/06/22 03:50:29;;;;;;;8.67;4.03;;;;;;;19.69;100.00;95786.91;5033364;28;102403;-64
2022/06/22 03:53:03;;;;;;;6.23;3.90;;;;;;;19.74;100.00;95783.25;5015901;28;102885;-64
2022/06/22 03:56:01;;;;;;;7.83;3.90;;;;;;;19.85;100.00;95797.97;5013240;28;102322;-64
2022/06/22 03:58:28;;;;;;;5.60;3.57;;;;;;;19.91;100.00;95797.47;5012457;28;102717;-64
2022/06/22 04:00:56;;;;;;;9.13;5.07;;;;;;;19.92;100.00;95803.63;5011444;28;102246;-63
2022/06/22 04:03:25;;;;;;;4.80;3.87;;;;;;;19.80;100.00;95806.22;5012440;28;102371;-63
2022/06/22 04:06:20;;;;;;;6.70;4.13;;;;;;;19.84;100.00;95807.19;5010771;28;104220;-63
2022/06/22 04:08:47;;;;;;;6.27;4.10;;;;;;;19.87;100.00;95806.50;5030087;28;102088;-63
2022/06/22 04:11:19;;;;;;;5.97;4.13;;;;;;;19.91;100.00;95816.38;5032920;28;102902;-64
2022/06/22 04:13:50;;;;;;;6.57;4.40;;;;;;;19.96;100.00;95802.69;5030972;28;104212;-63
2022/06/22 04:16:21;;;;;;;5.07;4.00;;;;;;;20.01;100.00;95794.41;5035838;27;102130;-63
2022/06/22 04:18:55;;;;;;;7.07;4.33;;;;;;;19.93;100.00;95797.13;5030153;28;105873;-63
2022/06/22 04:21:25;;;;;;;7.37;4.63;;;;;;;19.78;100.00;95801.16;5031583;27;101939;-63
2022/06/22 04:23:55;;;;;;;6.20;4.20;;;;;;;19.85;100.00;95806.88;5032745;27;102258;-64
2022/06/22 04:26:26;;;;;;;5.40;4.20;;;;;;;19.96;100.00;95801.88;5031652;27;102560;-64
2022/06/22 04:28:57;;;;;;;7.90;3.97;;;;;;;20.04;100.00;95814.53;5031006;28;101901;-63
2022/06/22 04:31:30;;;;;;;5.47;3.93;;;;;;;19.91;100.00;95804.75;5032233;28;102382;-63
2022/06/22 04:34:04;;;;;;;9.00;4.70;;;;;;;19.99;100.00;95815.53;5030284;28;105500;-63
2022/06/22 04:36:37;;;;;;;5.93;4.40;;;;;;;20.07;100.00;95814.75;5035869;27;101778;-63
2022/06/22 04:39:12;;;;;;;5.77;4.20;;;;;;;20.12;100.00;95811.06;5031552;28;103380;-63
2022/06/22 04:41:41;;;;;;;7.20;4.07;;;;;;;20.10;100.00;95808.69;5030657;28;101895;-63
2022/06/22 04:44:14;;;;;;;8.27;4.27;;;;;;;20.03;100.00;95807.56;5031949;27;102750;-63
2022/06/22 04:46:44;;;;;;;5.63;4.50;;;;;;;20.12;100.00;95819.16;5031505;28;103077;-63
2022/06/22 04:49:19;;;;;;;6.27;4.13;;;;;;;20.10;100.00;95813.31;5030344;28;101945;-63
2022/06/22 04:51:52;;;;;;;6.10;4.10;;;;;;;20.20;100.00;95821.84;5031855;28;102512;-63
2022/06/22 04:54:24;;;;;;;4.77;3.73;;;;;;;20.27;100.00;95819.41;5029808;28;105166;-63
2022/06/22 04:56:54;;;;;;;4.77;4.03;;;;;;;20.46;100.00;95824.41;5030311;28;102212;-64
2022/06/22 04:59:23;;;;;;;5.50;4.13;;;;;;;20.60;100.00;95823.03;5034433;28;102836;-63
2022/06/22 05:01:55;;;;;;;5.37;4.17;;;;;;;20.59;100.00;95821.47;5029855;28;102853;-64
2022/06/22 05:04:29;;;;;;;8.00;4.50;;;;;;;20.30;100.00;95837.69;5031749;28;102928;-64
2022/06/22 05:07:07;;;;;;;4.23;3.40;;;;;;;20.92;100.00;95830.50;5031061;27;102727;-65
2022/06/22 05:09:40;;;;;;;4.93;3.07;;;;;;;21.25;100.00;95822.47;5031491;28;102187;-64
2022/06/22 05:12:14;;;;;;;5.30;3.40;;;;;;;21.41;100.00;95823.44;5030066;28;105410;-64
2022/06/22 05:14:42;;;;;;;6.33;3.73;;;;;;;21.15;100.00;95818.25;5030921;28;102661;-64
2022/06/22 05:17:19;;;;;;;6.10;3.83;;;;;;;21.20;100.00;95820.75;5029903;28;101868;-64
2022/06/22 05:19:53;;;;;;;6.93;3.80;;;;;;;21.17;100.00;95826.03;5031700;27;102764;-64
2022/06/22 05:22:20;;;;;;;8.00;3.70;;;;;;;21.29;100.00;95828.78;5034286;27;102526;-64
2022/06/22 05:24:52;;;;;;;5.00;3.47;;;;;;;21.48;100.00;95835.28;5029880;28;103859;-64
2022/06/22 05:27:24;;;;;;;8.03;3.60;;;;;;;21.79;100.00;95832.19;5030698;27;102567;-64
2022/06/22 05:29:56;;;;;;;7.33;3.60;;;;;;;21.92;100.00;95825.66;5029874;28;102017;-64
2022/06/22 05:32:28;;;;;;;8.00;3.80;;;;;;;21.93;100.00;95819.91;5030638;27;102728;-64
2022/06/22 05:34:58;;;;;;;8.60;3.50;;;;;;;22.08;100.00;95821.97;5030514;28;102816;-64
2022/06/22 05:37:31;;;;;;;6.60;3.60;;;;;;;22.22;100.00;95827.06;5029950;28;102013;-64
2022/06/22 05:39:59;;;;;;;5.67;3.60;;;;;;;22.04;100.00;95828.38;5029680;28;105067;-64
2022/06/22 05:42:28;;;;;;;4.57;3.13;;;;;;;22.27;100.00;95827.63;5030401;28;102622;-64
2022/06/22 05:44:55;;;;;;;7.63;3.43;;;;;;;22.51;100.00;95826.88;5033029;28;102017;-64
2022/06/22 05:47:28;;;;;;;6.97;3.50;;;;;;;22.50;100.00;95836.94;5028798;28;105731;-64
2022/06/22 05:50:02;;;;;;;9.40;3.37;;;;;;;22.33;100.00;95830.91;5029440;28;102137;-64
2022/06/22 05:52:38;;;;;;;7.17;3.50;;;;;;;22.55;100.00;95830.50;5031009;28;102566;-64
2022/06/22 05:55:13;;;;;;;7.17;3.47;;;;;;;22.80;100.00;95818.50;5030265;28;102790;-64
2022/06/22 05:57:45;;;;;;;6.93;3.80;;;;;;;23.11;100.00;95824.88;5029446;28;102269;-64
2022/06/22 06:00:18;;;;;;;6.03;3.83;;;;;;;23.02;100.00;95826.16;5030526;27;103861;-64
2022/06/22 06:02:54;;;;;;;5.77;3.20;;;;;;;23.03;100.00;95833.16;5029554;28;104297;-64
2022/06/22 06:05:27;;;;;;;7.77;3.10;;;;;;;23.41;100.00;95830.81;5030874;27;101824;-64
2022/06/22 06:07:58;;;;;;;6.13;3.47;;;;;;;23.50;100.00;95834.19;5033680;28;102588;-64
2022/06/22 06:10:29;;;;;;;5.77;3.10;;;;;;;23.29;100.00;95834.38;5030835;28;101771;-64
2022/06/22 06:13:01;;;;;;;5.53;3.10;;;;;;;23.66;100.00;95829.59;5029364;28;104950;-64
2022/06/22 06:15:31;;;;;;;4.03;2.83;;;;;;;23.61;100.00;95835.28;5030018;28;102616;-64
2022/06/22 06:18:00;;;;;;;7.63;3.37;;;;;;;23.60;100.00;95826.31;5030507;27;101699;-64
2022/06/22 06:20:33;;;;;;;7.97;3.30;;;;;;;23.89;100.00;95834.16;5030682;27;102539;-64
2022/06/22 06:23:07;;;;;;;6.57;3.40;;;;;;;24.06;100.00;95833.03;5030106;28;102688;-64
2022/06/22 06:28:33;;;;;;;5.87;3.30;;;;;;;23.42;100.00;95826.97;5030580;27;101717;-64
2022/06/22 06:31:06;;;;;;;10.10;4.20;;;;;;;23.64;100.00;95821.03;5033254;27;102604;-64
2022/06/22 06:33:36;;;;;;;4.70;2.87;;;;;;;23.81;100.00;95815.28;5030493;28;102367;-64
2022/06/22 06:36:17;;;;;;;6.03;3.10;;;;;;;24.16;100.00;95808.84;5029864;28;102699;-64
2022/06/22 06:38:51;;;;;;;5.43;2.80;;;;;;;24.47;100.00;95808.06;5030537;27;101727;-64
2022/06/22 06:41:23;;;;;;;6.47;2.97;;;;;;;24.38;100.00;95815.59;5029131;28;105094;-64
2022/06/22 06:43:54;;;;;;;5.60;3.17;;;;;;;24.50;100.00;95810.06;5028342;27;105410;-64
2022/06/22 06:46:46;;;;;;;6.13;3.10;;;;;;;24.39;100.00;95814.44;5033960;28;101712;-64
2022/06/22 06:49:19;;;;;;;5.20;2.73;;;;;;;24.35;100.00;95821.75;5034378;27;102574;-64
2022/06/22 06:51:54;;;;;;;6.77;3.00;;;;;;;24.39;100.00;95822.59;5037094;28;101753;-64
2022/06/22 06:54:26;;;;;;;6.37;3.07;;;;;;;23.99;100.00;95835.56;5033834;28;102343;-64
2022/06/22 06:56:59;;;;;;;7.17;4.73;;;;;;;23.72;100.00;95833.63;5033396;28;103266;-64
2022/06/22 06:59:30;;;;;;;6.07;3.43;;;;;;;23.30;100.00;95843.28;5032489;28;101958;-64
2022/06/22 07:02:05;;;;;;;6.33;3.27;;;;;;;23.49;100.00;95846.19;5033823;28;102515;-64
2022/06/22 07:04:36;;;;;;;6.97;3.67;;;;;;;23.19;100.00;95844.91;5033284;27;102799;-64
2022/06/22 07:07:13;;;;;;;6.13;3.40;;;;;;;23.01;100.00;95847.06;5033901;28;101791;-65
2022/06/22 07:09:42;;;;;;;9.00;3.40;;;;;;;23.28;100.00;95842.84;5033545;28;104377;-65
2022/06/22 07:12:19;;;;;;;8.00;3.17;;;;;;;23.33;100.00;95842.63;5031744;28;104022;-66
2022/06/22 07:14:51;;;;;;;5.17;3.43;;;;;;;23.59;100.00;95851.13;5037080;28;102196;-66
2022/06/22 07:17:21;;;;;;;5.60;3.10;;;;;;;23.76;100.00;95853.53;5031577;28;104011;-66
2022/06/22 07:20:01;;;;;;;6.73;3.27;;;;;;;24.12;100.00;95853.34;5033603;27;101847;-66
2022/06/22 07:22:34;;;;;;;6.27;3.00;;;;;;;24.23;100.00;95851.69;5033766;28;102361;-66
2022/06/22 07:25:09;;;;;;;9.13;3.27;;;;;;;24.40;100.00;95857.59;5032898;28;103221;-66
2022/06/22 07:27:41;;;;;;;7.53;3.07;;;;;;;24.47;100.00;95860.47;5033624;28;101802;-66
2022/06/22 07:30:15;;;;;;;3.80;2.90;;;;;;;24.49;100.00;95860.13;5033645;28;102364;-66
2022/06/22 07:32:49;;;;;;;4.00;3.10;;;;;;;24.57;100.00;95868.13;5031337;28;105540;-66
2022/06/22 07:35:21;;;;;;;5.10;3.10;;;;;;;24.58;100.00;95864.28;5033029;28;101769;-66
2022/06/22 07:38:04;;;;;;;5.70;2.90;;;;;;;24.47;100.00;95865.16;5034507;28;105552;-66
2022/06/22 07:40:33;;;;;;;8.43;3.90;;;;;;;24.48;100.00;95870.25;5031659;28;101991;-66
2022/06/22 07:43:01;;;;;;;7.87;3.20;;;;;;;24.36;100.00;95872.25;5032697;28;102651;-66
2022/06/22 07:45:30;;;;;;;6.40;3.53;;;;;;;24.23;100.00;95873.44;5030670;28;105186;-66
2022/06/22 07:48:03;;;;;;;6.77;3.00;;;;;;;24.29;100.00;95877.47;5032922;28;101762;-66
2022/06/22 07:50:33;;;;;;;4.63;3.30;;;;;;;24.41;100.00;95875.47;5031495;28;104359;-66
2022/06/22 07:53:06;;;;;;;5.70;3.10;;;;;;;24.33;100.00;95883.81;5032043;27;102460;-66
2022/06/22 07:55:41;;;;;;;4.93;3.20;;;;;;;24.43;100.00;95875.94;5031354;27;101860;-66
2022/06/22 07:58:26;;;;;;;7.50;3.43;;;;;;;24.27;100.00;95879.75;5031292;28;105149;-66
2022/06/22 08:00:58;;;;;;;5.13;3.67;;;;;;;24.20;100.00;95879.59;5035540;27;102687;-66
2022/06/22 08:03:35;;;;;;;7.60;3.80;;;;;;;24.07;100.00;95880.78;5032447;28;102861;-66
2022/06/22 08:06:07;;;;;;;8.70;4.00;;;;;;;23.57;100.00;95877.81;5032149;28;102766;-66
2022/06/22 08:08:41;;;;;;;8.67;3.97;;;;;;;22.86;100.00;95887.63;5032711;28;102036;-66
2022/06/22 08:11:15;;;;;;;6.97;3.83;;;;;;;23.43;100.00;95890.97;5032670;28;102431;-66
2022/06/22 08:13:48;;;;;;;6.60;3.83;;;;;;;23.54;100.00;95894.78;5031997;28;102615;-66
2022/06/22 08:16:22;;;;;;;7.57;4.20;;;;;;;23.47;100.00;95892.66;5032474;28;101761;-66
2022/06/22 08:18:49;;;;;;;9.43;3.93;;;;;;;23.09;100.00;95892.25;5032664;28;102895;-66
2022/06/22 08:21:20;;;;;;;7.83;3.00;;;;;;;22.97;100.00;95892.28;5030200;28;103771;-66
2022/06/22 08:23:50;;;;;;;5.97;3.20;;;;;;;23.15;100.00;95887.41;5035836;27;101726;-66
2022/06/22 08:26:24;;;;;;;6.83;2.60;;;;;;;22.96;100.00;95887.97;5029960;28;105556;-66
2022/06/22 08:28:52;;;;;;;8.00;3.30;;;;;;;23.24;100.00;95888.06;5032304;28;101787;-66
2022/06/22 08:31:19;;;;;;;6.40;3.10;;;;;;;23.25;100.00;95890.44;5032311;28;102609;-66
2022/06/22 08:33:53;;;;;;;7.83;3.13;;;;;;;23.14;100.00;95900.16;5031581;27;102769;-66
2022/06/22 08:36:26;;;;;;;7.67;2.93;;;;;;;23.06;100.00;95903.78;5032257;27;101713;-66
2022/06/22 08:39:01;;;;;;;7.07;3.10;;;;;;;23.42;100.00;95914.59;5032359;28;102635;-66
2022/06/22 08:41:40;;;;;;;9.87;3.60;;;;;;;23.31;100.00;95912.69;5031542;28;102746;-66
2022/06/22 08:44:19;;;;;;;5.70;3.20;;;;;;;22.95;100.00;95912.72;5030795;28;102041;-66
2022/06/22 08:47:10;;;;;;;7.00;3.37;;;;;;;23.37;100.00;95914.84;5034769;27;104473;-66
2022/06/22 08:49:54;;;;;;;8.83;3.00;;;;;;;23.43;100.00;95910.75;5010418;28;102414;-66
2022/06/22 08:52:33;;;;;;;7.97;3.23;;;;;;;23.57;100.00;95907.66;5012048;28;102361;-66
2022/06/22 08:55:19;;;;;;;9.77;3.23;;;;;;;23.75;100.00;95909.75;5009216;28;105033;-66
2022/06/22 08:58:03;;;;;;;6.60;2.97;;;;;;;23.81;100.00;95905.66;5010251;28;101868;-66
2022/06/22 09:00:38;;;;;;;5.60;3.10;;;;;;;23.35;100.00;95916.31;5010297;28;105104;-66
2022/06/22 09:03:25;;;;;;;6.57;3.30;;;;;;;23.18;100.00;95919.28;5010603;28;102669;-66
2022/06/22 09:06:25;;;;;;;8.73;3.47;;;;;;;23.27;100.00;95914.53;5011758;28;101922;-66
2022/06/22 09:09:20;;;;;;;8.43;4.10;;;;;;;23.52;100.00;95918.75;5013702;28;102335;-66
2022/06/22 09:12:01;;;;;;;5.47;3.00;;;;;;;23.88;100.00;95926.81;5009999;28;102071;-66
2022/06/22 09:14:49;;;;;;;6.80;3.20;;;;;;;24.07;100.00;95932.41;5010007;28;103981;-66
2022/06/22 09:17:35;;;;;;;6.43;3.10;;;;;;;23.97;100.00;95927.47;5010426;28;104102;-66
2022/06/22 09:20:22;;;;;;;6.60;3.77;;;;;;;24.18;100.00;95928.03;5011525;28;102317;-66
2022/06/22 09:22:56;;;;;;;7.27;3.10;;;;;;;24.31;100.00;95926.84;5011175;28;102407;-66
2022/06/22 09:25:31;;;;;;;5.17;3.10;;;;;;;24.45;100.00;95919.84;5009294;28;105663;-66
2022/06/22 09:28:05;;;;;;;8.10;3.40;;;;;;;24.72;100.00;95912.78;5009896;28;101861;-66
2022/06/22 09:30:56;;;;;;;7.10;3.10;;;;;;;24.99;100.00;95914.63;5009854;28;105330;-66
2022/06/22 09:33:42;;;;;;;6.23;2.90;;;;;;;25.12;100.00;95918.81;5011219;28;102540;-66
2022/06/22 09:36:39;;;;;;;6.40;3.53;;;;;;;25.23;100.00;95909.75;5010850;28;102832;-66
2022/06/22 09:39:38;;;;;;;9.47;3.10;;;;;;;25.40;100.00;95908.59;5010447;28;102814;-66
2022/06/22 09:42:32;;;;;;;4.73;2.87;;;;;;;25.33;100.00;95913.91;5009680;28;102100;-67
2022/06/22 09:45:44;;;;;;;4.73;2.70;;;;;;;25.30;100.00;95920.84;5010898;28;102826;-66
2022/06/22 09:48:31;;;;;;;7.40;3.20;;;;;;;25.44;100.00;95904.81;4989788;28;102724;-66
2022/06/22 09:51:11;;;;;;;6.63;3.07;;;;;;;25.55;100.00;95897.66;5011105;28;102048;-66
2022/06/22 09:57:31;;;;;;;10.43;3.00;;;;;;;25.80;100.00;95890.78;4951134;28;105599;-66
2022/06/22 10:00:07;;;;;;;5.13;2.80;;;;;;;26.08;100.00;95887.84;4972352;28;101863;-66
2022/06/22 10:03:11;;;;;;;5.00;3.30;;;;;;;26.35;100.00;95884.06;5005416;28;101884;-67
2022/06/22 10:06:06;;;;;;;6.67;3.80;;;;;;;26.63;100.00;95879.13;5009233;28;102096;-66
2022/06/22 10:08:49;;;;;;;9.00;3.80;;;;;;;27.11;100.00;95892.78;5005311;28;106984;-66
2022/06/22 10:11:28;;;;;;;7.47;4.30;;;;;;;27.10;100.00;95902.16;5010094;28;102674;-66
2022/06/22 10:14:20;;;;;;;8.30;3.80;;;;;;;27.23;100.00;95910.91;5010564;28;101744;-66
2022/06/22 10:17:02;;;;;;;8.47;4.10;;;;;;;27.38;100.00;95912.72;5008696;28;105786;-66
2022/06/22 10:19:43;;;;;;;7.23;2.97;;;;;;;27.35;100.00;95902.53;5007389;28;105376;-66
2022/06/22 10:22:24;;;;;;;8.63;3.87;;;;;;;27.23;100.00;95914.44;5009104;28;101971;-66
2022/06/22 10:25:06;;;;;;;9.60;3.60;;;;;;;27.29;100.00;95904.78;5011669;28;103753;-66
2022/06/22 10:28:09;;;;;;;10.23;3.47;;;;;;;26.85;100.00;95905.63;5009070;28;102084;-66
2022/06/22 10:30:48;;;;;;;7.83;3.27;;;;;;;27.12;100.00;95912.69;5010395;28;104288;-66
2022/06/22 10:33:40;;;;;;;14.90;3.80;;;;;;;26.70;100.00;95912.00;5008486;28;105483;-66
2022/06/22 10:36:33;;;;;;;8.07;3.60;;;;;;;26.55;100.00;95910.97;5007208;28;102281;-66
2022/06/22 10:39:16;;;;;;;12.03;3.73;;;;;;;26.11;100.00;95911.66;5010149;28;102723;-66
2022/06/22 10:45:10;;;;;;;10.03;3.60;;;;;;;26.07;100.00;95908.09;5010199;28;101842;-66
2022/06/22 10:47:57;;;;;;;8.33;3.33;;;;;;;26.18;100.00;95904.44;5008568;28;103472;-66
2022/06/22 10:50:41;;;;;;;11.00;3.80;;;;;;;26.28;100.00;95895.66;5011057;28;105397;-66
2022/06/22 10:53:56;;;;;;;7.23;3.37;;;;;;;26.54;100.00;95897.66;5008630;28;106701;-66
2022/06/22 10:56:54;;;;;;;8.20;3.50;;;;;;;26.81;100.00;95893.88;4961581;28;104412;-66
2022/06/22 10:59:59;;;;;;;7.17;3.10;;;;;;;26.80;100.00;95900.50;5008248;28;102211;-66
2022/06/22 11:03:23;;;;;;;8.37;3.90;;;;;;;26.21;100.00;95898.22;5009498;28;102313;-64
2022/06/22 11:06:01;;;;;;;9.27;3.80;;;;;;;26.16;100.00;95886.84;5008153;28;102748;-66
2022/06/22 11:09:03;;;;;;;9.53;4.00;;;;;;;25.74;100.00;95885.97;5009677;28;101782;-67
2022/06/22 11:11:58;;;;;;;12.30;4.30;;;;;;;26.17;100.00;95891.94;5003126;28;105269;-67
2022/06/22 11:14:54;;;;;;;10.97;4.07;;;;;;;26.28;100.00;95889.41;5009027;28;102603;-65
2022/06/22 11:17:34;;;;;;;10.70;3.73;;;;;;;26.42;100.00;95889.66;5011540;28;101817;-69
2022/06/22 11:20:32;;;;;;;9.07;4.10;;;;;;;26.24;100.00;95891.28;5008927;28;103159;-65
2022/06/22 11:23:07;;;;;;;10.23;3.63;;;;;;;26.71;100.00;95894.47;5008249;28;101935;-69
2022/06/22 11:31:58;;;;;;;9.77;4.33;;;;;;;26.47;100.00;95886.63;5011700;28;101732;-65
2022/06/22 11:34:45;;;;;;;11.63;4.10;;;;;;;26.65;100.00;95891.25;5011528;28;105469;-65
2022/06/22 11:37:22;;;;;;;8.07;3.37;;;;;;;26.69;100.00;95888.63;5012573;28;102688;-66
2022/06/22 11:40:14;;;;;;;8.13;3.53;;;;;;;26.43;100.00;95885.78;5016597;28;101987;-66
2022/06/22 11:42:53;;;;;;;10.27;3.87;;;;;;;26.02;100.00;95887.38;5010966;28;103867;-66
2022/06/22 11:45:51;;;;;;;9.50;3.67;;;;;;;26.03;100.00;95885.41;5012558;28;101792;-66
2022/06/22 11:48:35;;;;;;;9.17;3.70;;;;;;;26.19;100.00;95883.38;5012915;28;102542;-66
2022/06/22 11:51:15;;;;;;;12.77;4.30;;;;;;;26.01;100.00;95895.91;5012182;28;102817;-66
2022/06/22 11:54:00;;;;;;;5.77;3.53;;;;;;;26.04;100.00;95895.97;5012856;28;101693;-66
2022/06/22 11:56:42;;;;;;;11.50;4.27;;;;;;;25.92;100.00;95887.16;5011120;28;105178;-66
2022/06/22 11:59:31;;;;;;;9.50;4.67;;;;;;;25.92;100.00;95877.06;4995482;28;104114;-66
2022/06/22 12:02:30;;;;;;;6.50;3.60;;;;;;;26.32;100.00;95871.19;5010953;28;101914;-66
2022/06/22 12:05:20;;;;;;;7.53;3.40;;;;;;;26.70;100.00;95869.13;5014060;28;102917;-66
2022/06/22 12:08:10;;;;;;;8.07;3.93;;;;;;;26.10;100.00;95872.72;5012403;28;101715;-66
2022/06/22 12:10:48;;;;;;;7.60;3.40;;;;;;;26.46;100.00;95880.38;5011243;28;105663;-66
2022/06/22 12:15:04;;;;;;;9.83;3.60;;;;;;;26.66;100.00;95887.41;5010365;28;105711;-66
2022/06/22 12:16:38;;;;;;;10.03;3.70;;;;;;;26.93;100.00;95877.31;4983435;28;102096;-66
2022/06/22 12:19:18;;;;;;;9.33;3.90;;;;;;;26.60;100.00;95882.59;5012282;28;102824;-66
2022/06/22 12:22:01;;;;;;;6.17;3.77;;;;;;;26.63;100.00;95876.41;5011719;28;102639;-66
2022/06/22 12:24:38;;;;;;;6.90;3.97;;;;;;;26.30;100.00;95878.91;5010779;28;101954;-66